createdAt,value
2023-07-17T00:00:06.920Z,8.18
2023-07-17T00:02:33.767Z,9.25
2023-07-17T00:05:00.270Z,8.90
2023-07-17T00:07:27.143Z,7.57
2023-07-17T00:09:53.754Z,8.35
2023-07-17T00:12:20.235Z,8.10
2023-07-17T00:14:46.817Z,8.35
2023-07-17T00:17:13.879Z,7.45
2023-07-17T00:19:40.591Z,11.57
2023-07-17T00:22:08.065Z,7.78
2023-07-17T00:24:34.715Z,7.88
2023-07-17T00:27:02.195Z,7.60
2023-07-17T00:29:31.676Z,8.13
2023-07-17T00:31:58.324Z,8.65
2023-07-17T00:34:24.974Z,9.00
2023-07-17T00:36:51.637Z,9.85
2023-07-17T00:39:20.373Z,9.32
2023-07-17T00:41:47.443Z,8.50
2023-07-17T00:44:13.940Z,7.45
2023-07-17T00:46:40.610Z,6.70
2023-07-17T00:49:07.597Z,8.40
2023-07-17T00:51:34.395Z,8.00
2023-07-17T00:54:01.491Z,8.52
2023-07-17T00:56:29.212Z,10.55
2023-07-17T00:58:56.074Z,7.75
2023-07-17T01:01:22.951Z,7.80
2023-07-17T01:03:50.853Z,8.43
2023-07-17T01:06:19.220Z,9.45
2023-07-17T01:08:45.878Z,7.82
2023-07-17T01:11:12.592Z,8.90
2023-07-17T01:13:46.379Z,7.82
2023-07-17T01:16:13.522Z,9.50
2023-07-17T01:18:40.376Z,7.82
2023-07-17T01:21:07.463Z,6.55
2023-07-17T01:23:34.427Z,7.40
2023-07-17T01:26:00.902Z,8.35
2023-07-17T01:28:28.163Z,8.35
2023-07-17T01:30:54.655Z,6.45
2023-07-17T01:33:21.197Z,9.63
2023-07-17T01:35:47.656Z,7.00
2023-07-17T01:38:14.696Z,8.05
2023-07-17T01:40:41.138Z,8.02
2023-07-17T01:43:08.174Z,7.60
2023-07-17T01:45:34.620Z,8.82
2023-07-17T01:48:01.089Z,7.93
2023-07-17T01:50:27.611Z,8.77
2023-07-17T01:52:54.187Z,7.82
2023-07-17T01:55:20.739Z,6.88
2023-07-17T01:57:47.181Z,6.35
2023-07-17T02:00:14.174Z,7.00
2023-07-17T02:02:40.741Z,6.43
2023-07-17T02:05:07.881Z,6.13
2023-07-17T02:07:34.450Z,5.78
2023-07-17T02:10:04.863Z,5.10
2023-07-17T02:12:31.453Z,6.70
2023-07-17T02:14:59.932Z,5.50
2023-07-17T02:17:26.484Z,8.27
2023-07-17T02:19:52.992Z,5.75
2023-07-17T02:22:20.784Z,8.05
2023-07-17T02:24:47.477Z,6.57
2023-07-17T02:27:13.890Z,6.75
2023-07-17T02:29:40.356Z,5.18
2023-07-17T02:32:07.592Z,7.35
2023-07-17T02:37:00.655Z,5.93
2023-07-17T02:39:27.169Z,8.13
2023-07-17T02:41:53.776Z,8.20
2023-07-17T02:44:20.849Z,6.20
2023-07-17T02:46:47.428Z,8.18
2023-07-17T02:49:15.108Z,7.18
2023-07-17T02:51:42.248Z,6.68
2023-07-17T02:54:08.778Z,5.78
2023-07-17T02:56:35.213Z,7.93
2023-07-17T02:59:01.698Z,5.43
2023-07-17T03:01:29.095Z,5.38
2023-07-17T03:03:55.750Z,6.30
2023-07-17T03:06:22.482Z,6.55
2023-07-17T03:08:49.193Z,7.60
2023-07-17T03:11:15.883Z,4.72
2023-07-17T03:13:42.604Z,5.38
2023-07-17T03:16:09.312Z,8.60
2023-07-17T03:18:35.860Z,8.27
2023-07-17T03:21:02.395Z,7.57
2023-07-17T03:23:29.189Z,6.38
2023-07-17T03:25:57.051Z,9.00
2023-07-17T03:28:23.725Z,6.35
2023-07-17T03:30:50.275Z,7.13
2023-07-17T03:33:17.008Z,5.93
2023-07-17T03:35:46.322Z,9.57
2023-07-17T03:38:14.084Z,5.57
2023-07-17T03:40:40.516Z,7.38
2023-07-17T03:43:06.971Z,6.28
2023-07-17T03:45:33.447Z,6.82
2023-07-17T03:48:02.699Z,6.95
2023-07-17T03:50:31.395Z,6.75
2023-07-17T03:52:57.922Z,6.47
2023-07-17T03:55:24.488Z,9.07
2023-07-17T03:57:50.954Z,6.93
2023-07-17T04:00:17.537Z,7.82
2023-07-17T04:02:44.752Z,8.63
2023-07-17T04:05:31.640Z,10.95
2023-07-17T04:07:58.626Z,6.40
2023-07-17T04:10:25.270Z,8.00
2023-07-17T04:12:51.765Z,8.98
2023-07-17T04:15:18.328Z,9.60
2023-07-17T04:17:44.876Z,6.40
2023-07-17T04:20:11.872Z,9.32
2023-07-17T04:22:38.713Z,8.68
2023-07-17T04:25:05.618Z,9.23
2023-07-17T04:27:32.546Z,8.00
2023-07-17T04:30:00.632Z,8.70
2023-07-17T04:32:27.927Z,7.13
2023-07-17T04:34:54.492Z,8.43
2023-07-17T04:37:21.051Z,8.55
2023-07-17T04:39:47.628Z,10.18
2023-07-17T04:42:14.565Z,8.43
2023-07-17T04:44:41.313Z,9.85
2023-07-17T04:47:08.044Z,12.32
2023-07-17T04:49:35.354Z,9.93
2023-07-17T04:52:02.358Z,8.90
2023-07-17T04:54:29.049Z,10.18
2023-07-17T04:56:56.084Z,9.23
2023-07-17T04:59:23.812Z,10.93
2023-07-17T05:01:50.856Z,8.98
2023-07-17T05:04:17.528Z,11.07
2023-07-17T05:06:44.150Z,8.73
2023-07-17T05:09:11.531Z,10.50
2023-07-17T05:11:38.083Z,8.75
2023-07-17T05:14:04.664Z,11.30
2023-07-17T05:16:31.399Z,10.70
2023-07-17T05:18:57.955Z,9.07
2023-07-17T05:21:24.866Z,10.73
2023-07-17T05:23:51.350Z,11.57
2023-07-17T05:26:22.364Z,10.65
2023-07-17T05:28:50.358Z,9.75
2023-07-17T05:31:17.308Z,12.15
2023-07-17T05:33:44.636Z,12.55
2023-07-17T05:36:11.177Z,10.80
2023-07-17T05:38:38.405Z,13.23
2023-07-17T05:41:07.125Z,12.70
2023-07-17T05:43:33.906Z,9.35
2023-07-17T05:46:06.318Z,8.10
2023-07-17T05:48:33.016Z,10.00
2023-07-17T05:50:59.521Z,9.27
2023-07-17T05:53:26.073Z,8.65
2023-07-17T05:55:53.598Z,8.02
2023-07-17T05:58:20.120Z,7.82
2023-07-17T06:00:47.132Z,8.48
2023-07-17T06:03:13.627Z,9.25
2023-07-17T06:05:40.037Z,9.18
2023-07-17T06:08:07.082Z,7.97
2023-07-17T06:10:33.645Z,8.23
2023-07-17T06:13:00.203Z,7.72
2023-07-17T06:15:27.684Z,9.32
2023-07-17T06:17:54.275Z,6.97
2023-07-17T06:20:21.762Z,8.02
2023-07-17T06:22:48.980Z,8.98
2023-07-17T06:25:15.605Z,9.23
2023-07-17T06:27:42.226Z,10.18
2023-07-17T06:30:08.982Z,9.10
2023-07-17T06:32:35.589Z,8.45
2023-07-17T06:35:02.387Z,7.75
2023-07-17T06:37:28.870Z,12.88
2023-07-17T06:39:55.300Z,10.50
2023-07-17T06:42:21.751Z,8.52
2023-07-17T06:44:48.256Z,12.70
2023-07-17T06:47:29.632Z,9.25
2023-07-17T06:50:01.377Z,10.48
2023-07-17T06:52:28.031Z,9.20
2023-07-17T06:55:03.962Z,9.43
2023-07-17T06:57:32.173Z,8.93
2023-07-17T06:59:58.731Z,9.10
2023-07-17T07:02:25.370Z,11.27
2023-07-17T07:04:51.912Z,9.98
2023-07-17T07:07:19.287Z,9.52
2023-07-17T07:09:46.337Z,11.85
2023-07-17T07:12:12.876Z,11.13
2023-07-17T07:14:39.334Z,8.43
2023-07-17T07:17:05.912Z,8.48
2023-07-17T07:19:32.482Z,10.73
2023-07-17T07:21:58.958Z,10.93
2023-07-17T07:24:25.435Z,9.88
2023-07-17T07:26:51.914Z,10.18
2023-07-17T07:29:18.465Z,9.32
2023-07-17T07:31:45.055Z,9.15
2023-07-17T07:34:11.678Z,9.30
2023-07-17T07:36:38.184Z,10.43
2023-07-17T07:39:06.884Z,10.13
2023-07-17T07:41:34.166Z,12.23
2023-07-17T07:44:00.728Z,11.00
2023-07-17T07:46:27.694Z,8.90
2023-07-17T07:48:54.459Z,11.07
2023-07-17T07:51:20.951Z,8.20
2023-07-17T07:53:47.401Z,11.23
2023-07-17T07:56:13.927Z,9.23
2023-07-17T07:58:40.462Z,10.35
2023-07-17T08:01:06.978Z,9.82
2023-07-17T08:03:34.802Z,9.15
2023-07-17T08:06:01.395Z,10.50
2023-07-17T08:08:27.908Z,9.88
2023-07-17T08:10:54.644Z,9.20
2023-07-17T08:13:21.189Z,9.25
2023-07-17T08:15:48.423Z,10.63
2023-07-17T08:20:41.844Z,8.65
2023-07-17T08:23:08.470Z,10.88
2023-07-17T08:25:35.298Z,10.80
2023-07-17T08:28:01.813Z,10.80
2023-07-17T08:30:28.343Z,9.90
2023-07-17T08:32:54.967Z,9.95
2023-07-17T08:35:21.633Z,9.98
2023-07-17T08:37:48.174Z,9.52
2023-07-17T08:40:14.762Z,9.65
2023-07-17T08:42:44.784Z,8.43
2023-07-17T08:45:12.316Z,9.77
2023-07-17T08:47:38.818Z,7.88
2023-07-17T08:50:05.646Z,8.93
2023-07-17T08:52:32.934Z,9.85
2023-07-17T08:57:27.268Z,7.93
2023-07-17T08:59:55.272Z,8.15
2023-07-17T09:02:22.086Z,8.32
2023-07-17T09:04:48.653Z,8.02
2023-07-17T09:07:15.123Z,7.95
2023-07-17T09:09:41.612Z,8.73
2023-07-17T09:12:09.138Z,8.77
2023-07-17T09:14:36.134Z,8.88
2023-07-17T09:17:08.661Z,10.57
2023-07-17T09:19:36.499Z,8.25
2023-07-17T09:22:03.724Z,7.85
2023-07-17T09:24:30.475Z,7.45
2023-07-17T09:26:57.705Z,8.85
2023-07-17T09:31:51.629Z,8.63
2023-07-17T09:34:18.303Z,8.38
2023-07-17T09:36:44.740Z,9.75
2023-07-17T09:39:12.176Z,9.55
2023-07-17T09:41:38.679Z,8.27
2023-07-17T09:44:05.857Z,10.18
2023-07-17T09:48:59.256Z,9.65
2023-07-17T09:51:26.224Z,7.63
2023-07-17T09:53:52.943Z,8.60
2023-07-17T09:56:20.106Z,7.50
2023-07-17T09:58:51.882Z,8.38
2023-07-17T10:01:24.191Z,10.07
2023-07-17T10:03:51.704Z,8.93
2023-07-17T10:06:19.385Z,8.80
2023-07-17T10:08:47.683Z,8.15
2023-07-17T10:11:15.971Z,7.68
2023-07-17T10:13:44.048Z,7.30
2023-07-17T10:16:11.068Z,8.57
2023-07-17T10:18:46.349Z,7.75
2023-07-17T10:21:14.801Z,7.38
2023-07-17T10:23:42.840Z,8.77
2023-07-17T10:26:09.566Z,6.05
2023-07-17T10:28:37.292Z,8.32
2023-07-17T10:31:09.632Z,9.15
2023-07-17T10:33:36.875Z,7.38
2023-07-17T10:36:03.526Z,6.45
2023-07-17T10:38:31.911Z,8.50
2023-07-17T10:41:05.616Z,8.77
2023-07-17T10:43:33.245Z,6.35
2023-07-17T10:46:00.039Z,6.30
2023-07-17T10:48:27.159Z,7.18
2023-07-17T10:50:54.985Z,8.43
2023-07-17T10:53:22.152Z,8.25
2023-07-17T10:55:48.805Z,7.80
2023-07-17T10:58:15.380Z,10.02
2023-07-17T11:00:43.345Z,9.38
2023-07-17T11:03:10.389Z,8.68
2023-07-17T11:05:37.805Z,9.85
2023-07-17T11:08:05.070Z,8.35
2023-07-17T11:13:01.586Z,9.32
2023-07-17T11:15:28.026Z,7.53
2023-07-17T11:17:54.601Z,7.10
2023-07-17T11:20:21.169Z,7.35
2023-07-17T11:22:47.866Z,8.10
2023-07-17T11:25:14.408Z,8.10
2023-07-17T11:27:41.838Z,6.80
2023-07-17T11:30:16.004Z,8.63
2023-07-17T11:32:42.967Z,9.82
2023-07-17T11:35:09.625Z,8.18
2023-07-17T11:37:38.543Z,9.38
2023-07-17T11:40:06.717Z,7.25
2023-07-17T11:42:51.972Z,8.15
2023-07-17T11:45:20.476Z,9.25
2023-07-17T11:47:47.202Z,7.10
2023-07-17T11:50:13.736Z,8.45
2023-07-17T11:52:40.266Z,8.15
2023-07-17T11:55:07.173Z,8.93
2023-07-17T11:57:33.647Z,10.93
2023-07-17T12:00:04.622Z,8.40
2023-07-17T12:02:38.424Z,8.02
2023-07-17T12:05:05.160Z,8.57
2023-07-17T12:07:31.699Z,10.40
2023-07-17T12:09:58.301Z,11.73
2023-07-17T12:12:24.955Z,9.65
2023-07-17T12:14:51.602Z,10.95
2023-07-17T12:17:18.704Z,10.85
2023-07-17T12:19:45.211Z,10.95
2023-07-17T12:24:41.646Z,11.32
2023-07-17T12:27:08.525Z,10.07
2023-07-17T12:29:35.104Z,9.68
2023-07-17T12:32:01.782Z,9.65
2023-07-17T12:34:28.327Z,10.48
2023-07-17T12:36:55.412Z,9.73
2023-07-17T12:39:23.639Z,8.93
2023-07-17T12:41:50.314Z,9.43
2023-07-17T12:44:16.879Z,9.63
2023-07-17T12:46:44.405Z,9.27
2023-07-17T12:49:13.191Z,9.13
2023-07-17T12:51:39.774Z,9.15
2023-07-17T12:54:06.918Z,8.10
2023-07-17T12:59:00.013Z,9.57
2023-07-17T13:01:26.537Z,6.25
2023-07-17T13:03:53.181Z,7.22
2023-07-17T13:06:21.621Z,8.43
2023-07-17T13:08:48.724Z,7.57
2023-07-17T13:11:15.920Z,7.45
2023-07-17T13:16:09.119Z,6.70
2023-07-17T13:18:36.300Z,6.70
2023-07-17T13:21:03.030Z,6.70
2023-07-17T13:23:29.466Z,9.48
2023-07-17T13:25:55.896Z,6.95
2023-07-17T13:28:22.420Z,6.93
2023-07-17T13:31:03.467Z,7.50
2023-07-17T13:36:00.942Z,14.68
2023-07-17T13:38:28.703Z,8.05
2023-07-17T13:40:55.218Z,7.90
2023-07-17T13:43:21.679Z,6.90
2023-07-17T13:45:48.207Z,8.75
2023-07-17T13:48:14.830Z,8.27
2023-07-17T13:50:41.408Z,5.90
2023-07-17T13:53:08.004Z,7.85
2023-07-17T13:55:34.502Z,6.80
2023-07-17T13:58:01.063Z,7.13
2023-07-17T14:00:29.101Z,7.88
2023-07-17T14:02:55.780Z,8.60
2023-07-17T14:05:22.396Z,8.02
2023-07-17T14:07:48.889Z,9.80
2023-07-17T14:10:15.435Z,8.27
2023-07-17T14:12:41.964Z,6.93
2023-07-17T14:15:09.007Z,7.50
2023-07-17T14:17:35.506Z,7.10
2023-07-17T14:20:02.126Z,6.95
2023-07-17T14:22:28.673Z,6.85
2023-07-17T14:24:55.207Z,6.28
2023-07-17T14:27:21.666Z,7.47
2023-07-17T14:29:48.302Z,8.05
2023-07-17T14:32:14.962Z,7.82
2023-07-17T14:34:41.693Z,7.53
2023-07-17T14:37:08.193Z,8.35
2023-07-17T14:39:34.773Z,7.07
2023-07-17T14:42:01.236Z,7.80
2023-07-17T14:44:27.840Z,8.23
2023-07-17T14:46:54.557Z,6.93
2023-07-17T14:49:21.100Z,7.18
2023-07-17T14:51:47.665Z,7.57
2023-07-17T14:54:14.155Z,8.30
2023-07-17T14:56:40.805Z,7.90
2023-07-17T14:59:07.823Z,8.52
2023-07-17T15:01:34.394Z,6.75
2023-07-17T15:04:01.041Z,8.20
2023-07-17T15:06:27.578Z,8.32
2023-07-17T15:08:54.050Z,8.95
2023-07-17T15:11:25.572Z,7.72
2023-07-17T15:13:52.238Z,6.80
2023-07-17T15:16:19.038Z,8.15
2023-07-17T15:21:12.272Z,7.97
2023-07-17T15:23:38.769Z,7.47
2023-07-17T15:26:05.284Z,8.27
2023-07-17T15:28:31.757Z,6.95
2023-07-17T15:30:58.346Z,6.38
2023-07-17T15:33:26.634Z,7.20
2023-07-17T15:35:53.450Z,6.47
2023-07-17T15:38:20.227Z,8.07
2023-07-17T15:40:46.742Z,8.10
2023-07-17T15:43:13.298Z,5.95
2023-07-17T15:45:39.826Z,7.80
2023-07-17T15:48:06.871Z,7.18
2023-07-17T15:50:33.500Z,6.88
2023-07-17T15:53:00.037Z,6.35
2023-07-17T15:55:26.589Z,9.43
2023-07-17T15:57:53.083Z,8.98
2023-07-17T16:00:19.662Z,8.20
2023-07-17T16:02:46.197Z,6.95
2023-07-17T16:05:12.742Z,8.18
2023-07-17T16:07:39.280Z,7.38
2023-07-17T16:10:06.070Z,8.00
2023-07-17T16:12:32.560Z,7.75
2023-07-17T16:14:59.190Z,7.32
2023-07-17T16:17:25.849Z,6.22
2023-07-17T16:19:52.413Z,6.88
2023-07-17T16:22:18.927Z,8.13
2023-07-17T16:24:45.443Z,8.23
2023-07-17T16:27:11.922Z,9.05
2023-07-17T16:29:38.398Z,7.90
2023-07-17T16:32:05.116Z,9.00
2023-07-17T16:34:31.545Z,8.32
2023-07-17T16:36:58.016Z,8.45
2023-07-17T16:39:24.532Z,7.78
2023-07-17T16:41:51.059Z,6.72
2023-07-17T16:44:18.086Z,8.57
2023-07-17T16:46:44.751Z,8.07
2023-07-17T16:49:11.329Z,9.02
2023-07-17T16:51:37.799Z,6.80
2023-07-17T16:54:04.375Z,8.93
2023-07-17T16:56:31.081Z,7.03
2023-07-17T16:58:57.598Z,6.45
2023-07-17T17:01:24.152Z,6.20
2023-07-17T17:03:50.870Z,8.27
2023-07-17T17:06:18.005Z,5.93
2023-07-17T17:08:44.925Z,7.53
2023-07-17T17:11:11.932Z,6.20
2023-07-17T17:13:38.934Z,6.57
2023-07-17T17:16:05.431Z,4.38
2023-07-17T17:18:31.930Z,6.50
2023-07-17T17:20:58.448Z,7.05
2023-07-17T17:23:25.003Z,6.00
2023-07-17T17:25:51.487Z,5.93
2023-07-17T17:28:17.926Z,5.25
2023-07-17T17:30:44.521Z,5.70
2023-07-17T17:33:11.210Z,5.25
2023-07-17T17:35:39.272Z,4.93
2023-07-17T17:38:09.974Z,5.10
2023-07-17T17:40:39.277Z,4.88
2023-07-17T17:43:05.772Z,4.72
2023-07-17T17:45:32.407Z,5.88
2023-07-17T17:47:58.943Z,4.60
2023-07-17T17:50:25.438Z,6.70
2023-07-17T17:52:52.108Z,4.63
2023-07-17T17:55:18.593Z,5.13
2023-07-17T17:57:45.059Z,3.70
2023-07-17T18:00:13.123Z,5.15
2023-07-17T18:02:48.760Z,6.20
2023-07-17T18:05:15.347Z,5.65
2023-07-17T18:07:41.820Z,5.30
2023-07-17T18:10:08.601Z,6.22
2023-07-17T18:12:35.051Z,3.88
2023-07-17T18:15:01.558Z,3.88
2023-07-17T18:17:28.061Z,3.85
2023-07-17T18:19:54.559Z,5.72
2023-07-17T18:22:21.222Z,3.72
2023-07-17T18:24:48.703Z,3.22
2023-07-17T18:27:15.251Z,4.40
2023-07-17T18:29:41.902Z,4.53
2023-07-17T18:32:08.597Z,4.85
2023-07-17T18:34:35.181Z,3.75
2023-07-17T18:37:02.090Z,3.70
2023-07-17T18:39:29.040Z,2.80
2023-07-17T18:41:55.844Z,3.60
2023-07-17T18:44:22.357Z,5.95
2023-07-17T18:46:49.682Z,3.20
2023-07-17T18:49:16.497Z,4.50
2023-07-17T18:51:43.097Z,5.38
2023-07-17T18:54:09.623Z,3.75
2023-07-17T18:56:38.387Z,3.63
2023-07-17T18:59:18.129Z,3.05
2023-07-17T19:01:45.496Z,4.88
2023-07-17T19:04:12.269Z,3.97
2023-07-17T19:06:39.604Z,4.03
2023-07-17T19:11:33.955Z,3.88
2023-07-17T19:14:00.562Z,5.10
2023-07-17T19:16:27.243Z,4.20
2023-07-17T19:18:53.782Z,5.20
2023-07-17T19:21:20.554Z,3.60
2023-07-17T19:23:49.088Z,3.35
2023-07-17T19:26:17.256Z,3.47
2023-07-17T19:28:44.118Z,2.90
2023-07-17T19:31:11.131Z,3.35
2023-07-17T19:33:37.681Z,3.70
2023-07-17T19:36:05.992Z,3.95
2023-07-17T19:38:32.792Z,5.47
2023-07-17T19:40:59.957Z,4.18
2023-07-17T19:43:27.185Z,2.85
2023-07-17T19:48:20.333Z,3.00
2023-07-17T19:50:46.993Z,3.65
2023-07-17T19:53:13.757Z,1.95
2023-07-17T19:55:40.646Z,6.57
2023-07-17T19:58:07.752Z,5.68
2023-07-17T20:00:34.427Z,4.03
2023-07-17T20:03:01.230Z,5.07
2023-07-17T20:05:27.814Z,5.13
2023-07-17T20:07:54.505Z,2.92
2023-07-17T20:10:23.141Z,5.78
2023-07-17T20:33:43.706Z,5.03
2023-07-17T20:37:53.131Z,5.80
2023-07-17T21:02:42.048Z,5.20
2023-07-17T21:13:42.934Z,5.43
2023-07-17T21:18:56.191Z,5.68
2023-07-17T21:29:19.727Z,5.78
2023-07-17T21:32:05.300Z,5.13
2023-07-17T21:35:43.578Z,5.55
2023-07-17T21:38:27.494Z,6.93
2023-07-17T21:42:19.229Z,11.55
2023-07-17T21:48:51.235Z,5.95
2023-07-17T21:52:18.806Z,7.07
2023-07-17T21:55:37.574Z,5.28
2023-07-17T22:16:51.443Z,5.82
2023-07-17T22:19:37.964Z,5.13
2023-07-17T22:24:47.716Z,5.93
2023-07-17T22:30:55.433Z,6.97
2023-07-17T22:34:32.714Z,6.43
2023-07-17T22:41:17.833Z,5.38
2023-07-17T22:43:57.495Z,7.45
2023-07-17T22:47:05.409Z,6.47
2023-07-17T22:50:11.530Z,8.38
2023-07-17T22:57:47.270Z,7.38
2023-07-17T23:17:01.346Z,6.75
2023-07-17T23:21:08.174Z,6.70
2023-07-17T23:38:36.179Z,6.90
2023-07-17T23:41:17.649Z,4.68
2023-07-17T23:43:45.968Z,6.18
2023-07-17T23:46:18.353Z,6.50
